Time,TemperatureF,DewpointF,PressureIn,WindDirection,WindDirectionDegrees,WindSpeedMPH,WindSpeedGustMPH,Humidity,HourlyPrecipIn,Conditions,Clouds,dailyrainin,SolarRadiationWatts/m^2,SoftwareType,DateUTC
2013-06-07 00:02:00,54.0,43.0,-100.00,NNE,21,2.0,6.0,65,0.00,,,0.00,0.000000,,2013-06-07 06:02:00,
2013-06-07 00:12:00,54.0,43.0,-100.00,NNE,21,2.0,6.0,65,0.00,,,0.00,0.000000,,2013-06-07 06:12:00,
2013-06-07 00:22:00,54.0,43.0,-100.00,NNE,21,2.0,6.0,65,0.00,,,0.00,0.000000,,2013-06-07 06:22:00,
2013-06-07 00:32:00,54.0,43.0,-100.00,NNE,21,2.0,6.0,65,0.00,,,0.00,0.000000,,2013-06-07 06:32:00,
2013-06-07 00:52:00,52.0,43.0,-100.00,NW,319,2.0,4.0,70,0.00,,,0.00,0.000000,,2013-06-07 06:52:00,
2013-06-07 01:02:00,52.0,43.0,-100.00,NW,319,2.0,4.0,70,0.00,,,0.00,0.000000,,2013-06-07 07:02:00,
2013-06-07 01:12:00,52.0,43.0,-100.00,NW,319,2.0,4.0,70,0.00,,,0.00,0.000000,,2013-06-07 07:12:00,
2013-06-07 01:22:00,52.0,43.0,-100.00,NW,319,2.0,4.0,70,0.00,,,0.00,0.000000,,2013-06-07 07:22:00,
2013-06-07 01:32:00,52.0,43.0,-100.00,NW,319,2.0,4.0,70,0.00,,,0.00,0.000000,,2013-06-07 07:32:00,
2013-06-07 02:02:00,50.0,41.0,-100.00,SE,138,3.0,5.0,72,0.00,,,0.00,0.000000,,2013-06-07 08:02:00,
2013-06-07 02:12:00,50.0,41.0,-100.00,SE,138,3.0,5.0,72,0.00,,,0.00,0.000000,,2013-06-07 08:12:00,
2013-06-07 02:22:00,50.0,41.0,-100.00,SE,138,3.0,5.0,72,0.00,,,0.00,0.000000,,2013-06-07 08:22:00,
2013-06-07 02:32:00,50.0,41.0,-100.00,SE,138,3.0,5.0,72,0.00,,,0.00,0.000000,,2013-06-07 08:32:00,
2013-06-07 02:52:00,52.0,42.0,-100.00,West,271,5.0,11.0,69,0.00,,,0.00,0.000000,,2013-06-07 08:52:00,
2013-06-07 03:02:00,52.0,42.0,-100.00,West,271,5.0,11.0,69,0.00,,,0.00,0.000000,,2013-06-07 09:02:00,
2013-06-07 03:12:00,52.0,42.0,-100.00,West,271,5.0,11.0,69,0.00,,,0.00,0.000000,,2013-06-07 09:12:00,
2013-06-07 03:22:00,52.0,42.0,-100.00,West,271,5.0,11.0,69,0.00,,,0.00,0.000000,,2013-06-07 09:22:00,
2013-06-07 03:32:00,52.0,42.0,-100.00,West,271,5.0,11.0,69,0.00,,,0.00,0.000000,,2013-06-07 09:32:00,
2013-06-07 03:53:00,52.0,41.0,-100.00,WSW,257,7.0,10.0,66,0.00,,,0.00,0.000000,,2013-06-07 09:53:00,
2013-06-07 04:02:00,52.0,41.0,-100.00,WSW,257,7.0,10.0,66,0.00,,,0.00,0.000000,,2013-06-07 10:02:00,
2013-06-07 04:12:00,52.0,41.0,-100.00,WSW,257,7.0,10.0,66,0.00,,,0.00,0.000000,,2013-06-07 10:12:00,
2013-06-07 04:23:00,52.0,41.0,-100.00,WSW,257,7.0,10.0,66,0.00,,,0.00,0.000000,,2013-06-07 10:23:00,
2013-06-07 04:32:00,52.0,41.0,-100.00,WSW,257,7.0,10.0,66,0.00,,,0.00,0.000000,,2013-06-07 10:32:00,
2013-06-07 04:53:00,54.0,42.0,-100.00,WSW,256,10.0,18.0,63,0.00,,,0.00,0.000000,,2013-06-07 10:53:00,
2013-06-07 05:02:00,54.0,42.0,-100.00,WSW,256,10.0,18.0,63,0.00,,,0.00,0.000000,,2013-06-07 11:02:00,
2013-06-07 05:12:00,54.0,42.0,-100.00,WSW,256,10.0,18.0,63,0.00,,,0.00,0.000000,,2013-06-07 11:12:00,
2013-06-07 05:22:00,54.0,42.0,-100.00,WSW,256,10.0,18.0,63,0.00,,,0.00,0.000000,,2013-06-07 11:22:00,
2013-06-07 05:32:00,54.0,42.0,-100.00,WSW,256,10.0,18.0,63,0.00,,,0.00,0.000000,,2013-06-07 11:32:00,
2013-06-07 05:52:00,56.0,43.0,-100.00,WSW,257,11.0,18.0,62,0.00,,,0.00,0.000000,,2013-06-07 11:52:00,
2013-06-07 06:02:00,56.0,43.0,-100.00,WSW,257,11.0,18.0,62,0.00,,,0.00,0.000000,,2013-06-07 12:02:00,
2013-06-07 06:12:00,56.0,43.0,-100.00,WSW,257,11.0,18.0,62,0.00,,,0.00,0.000000,,2013-06-07 12:12:00,
2013-06-07 06:22:00,56.0,43.0,-100.00,WSW,257,11.0,18.0,62,0.00,,,0.00,0.000000,,2013-06-07 12:22:00,
2013-06-07 06:52:00,57.0,41.0,-100.00,WSW,249,10.0,23.0,56,0.00,,,0.00,49.000000,,2013-06-07 12:52:00,
2013-06-07 07:02:00,57.0,41.0,-100.00,WSW,249,10.0,23.0,56,0.00,,,0.00,49.000000,,2013-06-07 13:02:00,
2013-06-07 07:12:00,57.0,41.0,-100.00,WSW,249,10.0,23.0,56,0.00,,,0.00,49.000000,,2013-06-07 13:12:00,
2013-06-07 07:22:00,57.0,41.0,-100.00,WSW,249,10.0,23.0,56,0.00,,,0.00,49.000000,,2013-06-07 13:22:00,
2013-06-07 07:32:00,57.0,41.0,-100.00,WSW,249,10.0,23.0,56,0.00,,,0.00,49.000000,,2013-06-07 13:32:00,
2013-06-07 07:52:00,62.0,39.0,-100.00,SW,226,6.0,19.0,43,0.00,,,0.00,322.000000,,2013-06-07 13:52:00,
2013-06-07 08:02:00,62.0,39.0,-100.00,SW,226,6.0,19.0,43,0.00,,,0.00,322.000000,,2013-06-07 14:02:00,
2013-06-07 08:12:00,62.0,39.0,-100.00,SW,226,6.0,19.0,43,0.00,,,0.00,322.000000,,2013-06-07 14:12:00,
2013-06-07 08:22:00,62.0,39.0,-100.00,SW,226,6.0,19.0,43,0.00,,,0.00,322.000000,,2013-06-07 14:22:00,
2013-06-07 08:32:00,62.0,39.0,-100.00,SW,226,6.0,19.0,43,0.00,,,0.00,322.000000,,2013-06-07 14:32:00,
2013-06-07 08:52:00,67.0,43.0,-100.00,SW,233,5.0,14.0,41,0.00,,,0.00,535.000000,,2013-06-07 14:52:00,
2013-06-07 09:02:00,67.0,43.0,-100.00,SW,233,5.0,14.0,41,0.00,,,0.00,535.000000,,2013-06-07 15:02:00,
2013-06-07 09:12:00,67.0,43.0,-100.00,SW,233,5.0,14.0,41,0.00,,,0.00,535.000000,,2013-06-07 15:12:00,
2013-06-07 09:23:00,67.0,43.0,-100.00,SW,233,5.0,14.0,41,0.00,,,0.00,535.000000,,2013-06-07 15:23:00,
2013-06-07 09:33:00,67.0,43.0,-100.00,SW,233,5.0,14.0,41,0.00,,,0.00,535.000000,,2013-06-07 15:33:00,
2013-06-07 09:53:00,68.0,41.0,-100.00,WSW,239,5.0,15.0,37,0.00,,,0.00,519.000000,,2013-06-07 15:53:00,
2013-06-07 10:03:00,68.0,41.0,-100.00,WSW,239,5.0,15.0,37,0.00,,,0.00,519.000000,,2013-06-07 16:03:00,
2013-06-07 10:13:00,68.0,41.0,-100.00,WSW,239,5.0,15.0,37,0.00,,,0.00,519.000000,,2013-06-07 16:13:00,
2013-06-07 10:22:00,68.0,41.0,-100.00,WSW,239,5.0,15.0,37,0.00,,,0.00,519.000000,,2013-06-07 16:22:00,
2013-06-07 10:33:00,68.0,41.0,-100.00,WSW,239,5.0,15.0,37,0.00,,,0.00,519.000000,,2013-06-07 16:33:00,
2013-06-07 10:53:00,70.0,40.0,-100.00,WSW,258,5.0,15.0,33,0.00,,,0.00,405.000000,,2013-06-07 16:53:00,
2013-06-07 11:03:00,70.0,40.0,-100.00,WSW,258,5.0,15.0,33,0.00,,,0.00,405.000000,,2013-06-07 17:03:00,
2013-06-07 11:13:00,70.0,40.0,-100.00,WSW,258,5.0,15.0,33,0.00,,,0.00,405.000000,,2013-06-07 17:13:00,
2013-06-07 11:23:00,70.0,40.0,-100.00,WSW,258,5.0,15.0,33,0.00,,,0.00,405.000000,,2013-06-07 17:23:00,
2013-06-07 11:32:00,70.0,40.0,-100.00,WSW,258,5.0,15.0,33,0.00,,,0.00,405.000000,,2013-06-07 17:32:00,
2013-06-07 11:35:00,73.0,40.0,-100.00,SSW,208,6.0,18.0,30,0.00,,,0.00,241.000000,,2013-06-07 17:35:00,
2013-06-07 11:52:00,73.0,40.0,-100.00,SSW,208,6.0,18.0,30,0.00,,,0.00,241.000000,,2013-06-07 17:52:00,
2013-06-07 12:19:00,73.0,40.0,-100.00,SSW,208,6.0,18.0,30,0.00,,,0.00,241.000000,,2013-06-07 18:19:00,
2013-06-07 12:24:00,73.0,40.0,-100.00,SSW,208,6.0,18.0,30,0.00,,,0.00,241.000000,,2013-06-07 18:24:00,
2013-06-07 12:35:00,74.0,40.0,-100.00,NW,314,7.0,21.0,29,0.00,,,0.00,94.000000,,2013-06-07 18:35:00,
2013-06-07 13:00:00,74.0,40.0,-100.00,NW,314,7.0,21.0,29,0.00,,,0.00,94.000000,,2013-06-07 19:00:00,
2013-06-07 13:07:00,74.0,40.0,-100.00,NW,314,7.0,21.0,29,0.00,,,0.00,94.000000,,2013-06-07 19:07:00,
2013-06-07 13:15:00,74.0,40.0,-100.00,NW,314,7.0,21.0,29,0.00,,,0.00,94.000000,,2013-06-07 19:15:00,
2013-06-07 13:28:00,74.0,40.0,-100.00,NW,314,7.0,21.0,29,0.00,,,0.00,94.000000,,2013-06-07 19:28:00,
2013-06-07 13:35:00,76.0,41.0,-100.00,NNW,334,8.0,20.0,28,0.00,,,0.00,3.000000,,2013-06-07 19:35:00,
2013-06-07 13:59:00,76.0,41.0,-100.00,NNW,334,8.0,20.0,28,0.00,,,0.00,3.000000,,2013-06-07 19:59:00,
2013-06-07 14:07:00,76.0,41.0,-100.00,NNW,334,8.0,20.0,28,0.00,,,0.00,3.000000,,2013-06-07 20:07:00,
2013-06-07 14:16:00,76.0,41.0,-100.00,NNW,334,8.0,20.0,28,0.00,,,0.00,3.000000,,2013-06-07 20:16:00,
2013-06-07 14:25:00,76.0,41.0,-100.00,NNW,334,8.0,20.0,28,0.00,,,0.00,3.000000,,2013-06-07 20:25:00,
2013-06-07 14:35:00,75.0,35.0,-100.00,West,276,8.0,25.0,23,0.00,,,0.00,0.000000,,2013-06-07 20:35:00,
2013-06-07 14:58:00,75.0,35.0,-100.00,West,276,8.0,25.0,23,0.00,,,0.00,0.000000,,2013-06-07 20:58:00,
2013-06-07 15:05:00,75.0,35.0,-100.00,West,276,8.0,25.0,23,0.00,,,0.00,0.000000,,2013-06-07 21:05:00,
2013-06-07 15:18:00,75.0,35.0,-100.00,West,276,8.0,25.0,23,0.00,,,0.00,0.000000,,2013-06-07 21:18:00,
2013-06-07 15:27:00,75.0,35.0,-100.00,West,276,8.0,25.0,23,0.00,,,0.00,0.000000,,2013-06-07 21:27:00,
2013-06-07 16:01:00,78.0,37.0,-100.00,West,267,9.0,25.0,23,0.00,,,0.00,0.000000,,2013-06-07 22:01:00,
2013-06-07 16:08:00,78.0,37.0,-100.00,West,267,9.0,25.0,23,0.00,,,0.00,0.000000,,2013-06-07 22:08:00,
2013-06-07 16:28:00,78.0,37.0,-100.00,West,267,9.0,25.0,23,0.00,,,0.00,0.000000,,2013-06-07 22:28:00,
2013-06-07 16:35:00,79.0,36.0,-100.00,SW,230,9.0,23.0,21,0.00,,,0.00,0.000000,,2013-06-07 22:35:00,
2013-06-07 17:00:00,79.0,36.0,-100.00,SW,230,9.0,23.0,21,0.00,,,0.00,0.000000,,2013-06-07 23:00:00,
2013-06-07 17:08:00,79.0,36.0,-100.00,SW,230,9.0,23.0,21,0.00,,,0.00,0.000000,,2013-06-07 23:08:00,
2013-06-07 17:18:00,79.0,36.0,-100.00,SW,230,9.0,23.0,21,0.00,,,0.00,0.000000,,2013-06-07 23:18:00,
2013-06-07 17:29:00,79.0,36.0,-100.00,SW,230,9.0,23.0,21,0.00,,,0.00,0.000000,,2013-06-07 23:29:00,
2013-06-07 18:11:00,76.0,34.0,-100.00,NNW,341,6.0,21.0,22,0.00,,,0.00,0.000000,,2013-06-08 00:11:00,
2013-06-07 18:17:00,76.0,34.0,-100.00,NNW,341,6.0,21.0,22,0.00,,,0.00,0.000000,,2013-06-08 00:17:00,
2013-06-07 18:27:00,76.0,34.0,-100.00,NNW,341,6.0,21.0,22,0.00,,,0.00,0.000000,,2013-06-08 00:27:00,
2013-06-07 18:34:00,76.0,34.0,-100.00,NNW,341,6.0,21.0,22,0.00,,,0.00,0.000000,,2013-06-08 00:34:00,
2013-06-07 18:35:00,77.0,38.0,-100.00,SSW,207,4.0,16.0,25,0.00,,,0.00,0.000000,,2013-06-08 00:35:00,
2013-06-07 19:07:00,77.0,38.0,-100.00,SSW,207,4.0,16.0,25,0.00,,,0.00,0.000000,,2013-06-08 01:07:00,
2013-06-07 19:18:00,77.0,38.0,-100.00,SSW,207,4.0,16.0,25,0.00,,,0.00,0.000000,,2013-06-08 01:18:00,
2013-06-07 19:27:00,77.0,38.0,-100.00,SSW,207,4.0,16.0,25,0.00,,,0.00,0.000000,,2013-06-08 01:27:00,
2013-06-07 20:01:00,71.0,43.0,-100.00,SSE,165,9.0,25.0,36,0.00,,,0.00,0.000000,,2013-06-08 02:01:00,
2013-06-07 20:09:00,71.0,43.0,-100.00,SSE,165,9.0,25.0,36,0.00,,,0.00,0.000000,,2013-06-08 02:09:00,
2013-06-07 20:15:00,71.0,43.0,-100.00,SSE,165,9.0,25.0,36,0.00,,,0.00,0.000000,,2013-06-08 02:15:00,
2013-06-07 20:29:00,71.0,43.0,-100.00,SSE,165,9.0,25.0,36,0.00,,,0.00,0.000000,,2013-06-08 02:29:00,
2013-06-07 20:34:00,71.0,43.0,-100.00,SSE,165,9.0,25.0,36,0.00,,,0.00,0.000000,,2013-06-08 02:34:00,
2013-06-07 20:35:00,66.0,43.0,-100.00,NW,325,4.0,20.0,43,0.00,,,0.00,0.000000,,2013-06-08 02:35:00,
2013-06-07 20:59:00,66.0,43.0,-100.00,NW,325,4.0,20.0,43,0.00,,,0.00,0.000000,,2013-06-08 02:59:00,
2013-06-07 21:16:00,66.0,43.0,-100.00,NW,325,4.0,20.0,43,0.00,,,0.00,0.000000,,2013-06-08 03:16:00,
2013-06-07 21:27:00,66.0,43.0,-100.00,NW,325,4.0,20.0,43,0.00,,,0.00,0.000000,,2013-06-08 03:27:00,
2013-06-07 22:00:00,60.0,46.0,-100.00,NNW,341,5.0,15.0,59,0.00,,,0.00,0.000000,,2013-06-08 04:00:00,
2013-06-07 22:03:00,60.0,46.0,-100.00,NNW,341,5.0,15.0,59,0.00,,,0.00,0.000000,,2013-06-08 04:03:00,
2013-06-07 22:13:00,60.0,46.0,-100.00,NNW,341,5.0,15.0,59,0.00,,,0.00,0.000000,,2013-06-08 04:13:00,
2013-06-07 22:23:00,60.0,46.0,-100.00,NNW,341,5.0,15.0,59,0.00,,,0.00,0.000000,,2013-06-08 04:23:00,
2013-06-07 22:33:00,60.0,46.0,-100.00,NNW,341,5.0,15.0,59,0.00,,,0.00,0.000000,,2013-06-08 04:33:00,
2013-06-07 23:02:00,60.0,47.0,-100.00,NW,307,12.0,23.0,61,0.00,,,0.00,0.000000,,2013-06-08 05:02:00,
2013-06-07 23:12:00,60.0,47.0,-100.00,NW,307,12.0,23.0,61,0.00,,,0.00,0.000000,,2013-06-08 05:12:00,
2013-06-07 23:22:00,60.0,47.0,-100.00,NW,307,12.0,23.0,61,0.00,,,0.00,0.000000,,2013-06-08 05:22:00,
2013-06-07 23:32:00,60.0,47.0,-100.00,NW,307,12.0,23.0,61,0.00,,,0.00,0.000000,,2013-06-08 05:32:00,
2013-06-07 23:53:00,55.0,51.0,-100.00,NNW,343,3.0,31.0,85,0.00,,,0.00,0.000000,,2013-06-08 05:53:00,